Time;durP1;ratioP1;P1;durP2;ratioP2;P2;SDS_P1;SDS_P2;PMS_P1;PMS_P2;Temp;Humidity;BMP_temperature;BMP_pressure;BME280_temperature;BME280_humidity;BME280_pressure;Samples;Min_cycle;Max_cycle;Signal;HPM_P1;HPM_P2
2023/06/15 00:36:04;;;;;;;9.85;3.70;;;21.10;99.90;;;;;;6012207;23;20025;31
2023/06/15 00:38:31;;;;;;;7.35;4.68;;;21.20;99.90;;;;;;4877589;29;20558;-92
2023/06/15 00:40:57;;;;;;;9.32;4.15;;;21.10;99.90;;;;;;4894353;29;20061;-94
2023/06/15 00:43:24;;;;;;;7.13;4.43;;;21.10;99.90;;;;;;4894316;29;20454;-93
2023/06/15 00:45:51;;;;;;;15.82;4.85;;;21.10;99.90;;;;;;4894635;29;20372;-93
2023/06/15 00:48:18;;;;;;;7.40;3.60;;;21.20;99.90;;;;;;4897427;29;20025;-94
2023/06/15 00:50:45;;;;;;;8.45;3.83;;;21.20;99.90;;;;;;4897579;29;20084;-93
2023/06/15 00:53:12;;;;;;;13.55;4.38;;;21.10;99.90;;;;;;4900495;29;20470;-93
2023/06/15 00:55:43;;;;;;;13.13;4.07;;;21.10;99.90;;;;;;4900731;29;20029;-93
2023/06/15 00:58:10;;;;;;;11.43;3.85;;;21.10;99.90;;;;;;4900694;29;20036;-93
2023/06/15 01:01:07;;;;;;;7.43;3.75;;;21.00;99.90;;;;;;4901150;29;20047;-92
2023/06/15 01:03:35;;;;;;;11.30;4.50;;;21.10;99.90;;;;;;4900703;29;20055;-92
2023/06/15 01:06:12;;;;;;;5.85;3.83;;;21.10;99.90;;;;;;4900452;29;20028;-93
2023/06/15 01:08:47;;;;;;;8.85;3.45;;;21.10;99.90;;;;;;4900173;29;20043;-93
2023/06/15 01:11:15;;;;;;;10.60;4.20;;;21.10;99.90;;;;;;4900601;29;20047;-93
2023/06/15 01:13:44;;;;;;;8.05;3.97;;;21.10;99.90;;;;;;4900604;29;20026;-92
2023/06/15 01:16:26;;;;;;;6.80;3.85;;;21.00;99.90;;;;;;4900460;29;20044;-94
2023/06/15 01:18:59;;;;;;;10.60;3.72;;;20.80;99.90;;;;;;4900512;29;20501;-94
2023/06/15 01:21:29;;;;;;;11.00;4.00;;;20.80;99.90;;;;;;4897159;29;20033;-94
2023/06/15 01:24:20;;;;;;;7.63;3.78;;;20.70;99.90;;;;;;4866041;29;20036;-92
2023/06/15 01:26:50;;;;;;;11.50;4.55;;;20.80;99.90;;;;;;4881432;29;20383;-93
2023/06/15 01:29:20;;;;;;;6.38;3.83;;;20.70;99.90;;;;;;4866094;29;20029;-94
2023/06/15 01:31:49;;;;;;;4.95;3.65;;;20.70;99.90;;;;;;4869031;29;20168;-93
2023/06/15 01:34:17;;;;;;;7.82;4.13;;;20.70;99.90;;;;;;4900080;29;20496;-95
2023/06/15 01:36:44;;;;;;;9.05;4.00;;;20.80;99.90;;;;;;4900951;29;20196;-94
2023/06/15 01:39:10;;;;;;;14.15;5.43;;;20.70;99.90;;;;;;4914979;29;20102;-91
2023/06/15 01:41:39;;;;;;;9.82;4.95;;;20.70;99.90;;;;;;4918724;29;20172;-94
2023/06/15 01:44:06;;;;;;;15.85;5.57;;;20.70;99.90;;;;;;4918785;29;20039;-95
2023/06/15 01:46:33;;;;;;;12.10;5.85;;;20.60;99.90;;;;;;4918640;29;20095;-92
2023/06/15 01:49:00;;;;;;;11.98;5.20;;;20.50;99.90;;;;;;4915428;29;20025;-93
2023/06/15 01:51:30;;;;;;;12.07;5.85;;;20.50;99.90;;;;;;4884375;29;20036;-93
2023/06/15 01:53:56;;;;;;;11.32;5.22;;;20.50;99.90;;;;;;4884011;29;20057;-93
2023/06/15 01:56:24;;;;;;;8.13;4.60;;;20.50;99.90;;;;;;4884279;29;20037;-93
2023/06/15 01:58:50;;;;;;;10.38;5.38;;;20.50;99.90;;;;;;4884126;29;20120;-92
2023/06/15 02:01:17;;;;;;;10.25;4.78;;;20.60;99.90;;;;;;4884117;29;20470;-92
2023/06/15 02:03:43;;;;;;;11.65;5.70;;;20.60;99.90;;;;;;4899466;29;20024;-92
2023/06/15 02:06:11;;;;;;;10.52;5.15;;;20.60;99.90;;;;;;4902780;29;20032;-93
2023/06/15 02:08:37;;;;;;;8.98;4.20;;;20.70;99.90;;;;;;4902527;29;20055;-93
2023/06/15 02:11:04;;;;;;;8.65;4.68;;;20.60;99.90;;;;;;4902576;29;20032;-93
2023/06/15 02:13:30;;;;;;;9.32;4.38;;;20.70;99.90;;;;;;4902507;29;20024;-93
2023/06/15 02:15:58;;;;;;;9.43;4.43;;;20.70;99.90;;;;;;4902589;29;20040;-92
2023/06/15 02:18:24;;;;;;;12.02;3.47;;;20.70;99.90;;;;;;4902556;29;20133;-92
2023/06/15 02:20:50;;;;;;;6.50;3.35;;;20.70;99.90;;;;;;4902609;29;20036;-93
2023/06/15 02:23:19;;;;;;;8.50;3.70;;;20.60;99.90;;;;;;4902596;29;20024;-91
2023/06/15 02:25:47;;;;;;;7.30;3.67;;;20.60;99.90;;;;;;4902081;29;20092;-93
2023/06/15 02:28:13;;;;;;;7.72;3.85;;;20.60;99.90;;;;;;4902185;29;20035;-93
2023/06/15 02:30:40;;;;;;;8.13;4.13;;;20.60;99.90;;;;;;4917918;29;20102;-93
2023/06/15 02:33:10;;;;;;;8.55;4.00;;;20.70;99.90;;;;;;4902241;29;20119;-94
2023/06/15 02:35:36;;;;;;;13.60;4.80;;;20.70;99.90;;;;;;4902207;29;20046;-93
2023/06/15 02:38:03;;;;;;;9.75;4.07;;;20.70;99.90;;;;;;4901822;29;20074;-92
2023/06/15 02:40:31;;;;;;;9.18;3.38;;;20.60;99.90;;;;;;4902046;29;20095;-92
2023/06/15 02:42:57;;;;;;;7.10;3.85;;;20.60;99.90;;;;;;4902033;29;20031;-94
2023/06/15 02:45:24;;;;;;;10.65;3.70;;;20.70;99.90;;;;;;4901952;29;20035;-93
2023/06/15 02:47:51;;;;;;;6.07;3.63;;;20.70;99.90;;;;;;4902066;29;20028;-93
2023/06/15 02:50:19;;;;;;;8.07;3.63;;;20.70;99.90;;;;;;4898358;29;20510;-92
2023/06/15 02:52:55;;;;;;;9.23;3.63;;;20.70;99.90;;;;;;4899797;29;20067;-92
2023/06/15 02:55:23;;;;;;;8.32;3.90;;;20.70;99.90;;;;;;4898470;29;20033;-92
2023/06/15 02:57:50;;;;;;;8.02;3.70;;;20.70;99.90;;;;;;4898662;29;20084;-94
2023/06/15 03:00:40;;;;;;;7.68;4.20;;;20.70;99.90;;;;;;4903775;29;20024;-93
2023/06/15 03:03:22;;;;;;;6.57;3.65;;;20.70;99.90;;;;;;4902815;29;20048;-93
2023/06/15 03:05:51;;;;;;;14.93;4.57;;;20.70;99.90;;;;;;4901934;29;20032;-93
2023/06/15 03:08:18;;;;;;;12.73;4.45;;;20.70;99.90;;;;;;4901600;29;20485;-93
2023/06/15 03:10:55;;;;;;;10.77;4.32;;;20.70;99.90;;;;;;4902364;29;20481;-92
2023/06/15 03:13:21;;;;;;;9.65;3.80;;;20.70;99.90;;;;;;4901541;29;20039;-92
2023/06/15 03:15:54;;;;;;;10.60;5.22;;;20.70;99.90;;;;;;4917289;29;20028;-93
2023/06/15 03:27:32;;;;;;;;;;;;;;;;;;;;;
2023/06/15 03:44:18;;;;;;;;;;;;;;;;;;;;;
2023/06/15 03:54:26;;;;;;;12.68;4.97;;;21.00;99.90;;;;;;4786550;30;20515;-92
2023/06/15 03:56:52;;;;;;;11.95;5.38;;;21.10;99.90;;;;;;4772199;30;20146;-91
2023/06/15 03:59:19;;;;;;;10.18;5.30;;;21.20;99.90;;;;;;4757590;30;20508;-94
2023/06/15 04:01:46;;;;;;;15.30;4.95;;;21.20;99.90;;;;;;4779020;30;20070;-92
2023/06/15 04:04:14;;;;;;;13.88;6.05;;;21.20;99.90;;;;;;4754294;30;20028;-92
2023/06/15 04:06:46;;;;;;;15.27;5.45;;;21.30;99.90;;;;;;4754302;30;20042;-91
2023/06/15 04:09:15;;;;;;;11.77;5.88;;;21.30;99.90;;;;;;4754910;30;20053;-94
2023/06/15 04:11:42;;;;;;;13.15;5.38;;;21.40;99.90;;;;;;4754243;30;20038;-92
2023/06/15 04:14:08;;;;;;;12.45;5.68;;;21.50;99.90;;;;;;4754122;30;20060;-94
2023/06/15 04:16:40;;;;;;;8.68;5.22;;;21.50;99.90;;;;;;4754272;30;20097;-92
2023/06/15 04:19:08;;;;;;;9.98;4.88;;;21.60;99.90;;;;;;4754181;30;20032;-94
2023/06/15 04:21:34;;;;;;;15.55;6.05;;;21.70;99.90;;;;;;4781202;29;20434;-94
2023/06/15 04:24:03;;;;;;;9.73;5.10;;;21.80;99.90;;;;;;4811166;29;20120;-93
2023/06/15 04:26:30;;;;;;;10.02;5.07;;;21.80;99.90;;;;;;4824799;29;20030;-92
2023/06/15 04:28:58;;;;;;;11.00;5.43;;;21.80;99.90;;;;;;4907846;29;20059;-93
2023/06/15 04:31:30;;;;;;;10.18;5.30;;;21.80;99.90;;;;;;4908521;29;20517;-93
2023/06/15 04:33:59;;;;;;;9.15;4.90;;;21.90;99.90;;;;;;4907441;29;20109;-94
2023/06/15 04:36:31;;;;;;;8.98;5.20;;;22.00;99.90;;;;;;4907452;29;20544;-92
2023/06/15 04:39:00;;;;;;;9.02;4.35;;;22.00;99.90;;;;;;4907288;29;20040;-92
2023/06/15 04:41:29;;;;;;;10.57;5.05;;;22.10;99.90;;;;;;4907391;29;20043;-93
2023/06/15 04:44:02;;;;;;;16.10;5.65;;;22.00;99.90;;;;;;4895129;29;20135;-91
2023/06/15 04:46:29;;;;;;;11.15;5.03;;;22.10;99.90;;;;;;4888804;29;20028;-91
2023/06/15 04:48:57;;;;;;;14.20;5.63;;;22.10;99.90;;;;;;4880133;29;20057;-92
2023/06/15 04:51:24;;;;;;;10.52;5.15;;;22.10;99.90;;;;;;4885138;29;20032;-92
2023/06/15 04:53:51;;;;;;;10.93;5.05;;;22.10;99.90;;;;;;4885100;29;20029;-93
2023/06/15 04:56:18;;;;;;;11.43;4.32;;;21.90;99.90;;;;;;4880039;29;20032;-94
2023/06/15 04:58:45;;;;;;;7.03;3.80;;;21.50;99.90;;;;;;4888476;29;20035;-93
2023/06/15 05:01:12;;;;;;;8.27;4.07;;;21.10;99.90;;;;;;4888334;29;20039;-93
2023/06/15 05:03:42;;;;;;;6.53;4.28;;;21.00;99.90;;;;;;4888373;29;20028;-92
2023/06/15 05:06:08;;;;;;;6.82;3.38;;;21.00;99.90;;;;;;4879974;29;20553;-92
2023/06/15 05:08:35;;;;;;;6.80;3.50;;;21.00;99.90;;;;;;4894689;29;20028;-92
2023/06/15 05:11:02;;;;;;;5.47;3.78;;;20.90;99.90;;;;;;4884846;29;20056;-92
2023/06/15 05:13:31;;;;;;;4.80;3.35;;;20.80;99.90;;;;;;4884622;29;20439;-92
2023/06/15 05:16:00;;;;;;;7.28;3.40;;;20.80;99.90;;;;;;4903134;29;20024;-94
2023/06/15 05:18:28;;;;;;;6.00;3.30;;;20.90;99.90;;;;;;4887335;29;20486;-93
2023/06/15 05:20:59;;;;;;;9.93;4.00;;;20.80;99.90;;;;;;4869952;29;20035;-93
2023/06/15 05:23:28;;;;;;;9.45;3.63;;;20.90;99.90;;;;;;4869545;29;20037;-93
2023/06/15 05:25:55;;;;;;;9.88;4.78;;;20.90;99.90;;;;;;4869009;29;20062;-94
2023/06/15 05:28:22;;;;;;;12.82;6.10;;;21.00;99.90;;;;;;4869020;29;20079;-93
2023/06/15 05:30:48;;;;;;;11.65;6.07;;;21.10;99.90;;;;;;4869108;29;20088;-92
2023/06/15 05:33:15;;;;;;;13.45;3.95;;;21.10;99.90;;;;;;4884308;29;20060;-94
2023/06/15 05:35:41;;;;;;;5.85;3.10;;;21.20;99.90;;;;;;4886520;29;20040;-92
2023/06/15 05:38:08;;;;;;;9.45;4.60;;;21.10;99.90;;;;;;4886327;29;20032;-92
2023/06/15 05:40:38;;;;;;;10.60;3.85;;;21.20;99.90;;;;;;4887981;29;20059;-92
2023/06/15 05:43:05;;;;;;;6.28;3.45;;;21.40;99.90;;;;;;4892487;29;20095;-94
2023/06/15 05:45:32;;;;;;;4.07;3.20;;;21.70;99.90;;;;;;4906188;29;20040;-93
2023/06/15 05:48:04;;;;;;;6.60;3.25;;;22.10;99.90;;;;;;4906842;29;20054;-91
2023/06/15 05:50:31;;;;;;;4.43;3.22;;;22.60;99.90;;;;;;4906131;29;20489;-93
2023/06/15 05:52:58;;;;;;;4.55;3.92;;;23.00;99.90;;;;;;4894440;29;20036;-94
2023/06/15 05:55:29;;;;;;;8.32;4.70;;;23.20;99.90;;;;;;4902690;29;20397;-94
2023/06/15 05:57:56;;;;;;;7.25;6.60;;;23.50;99.90;;;;;;4887426;29;20043;-93
2023/06/15 06:00:25;;;;;;;7.50;6.80;;;23.50;99.90;;;;;;4887439;29;20028;-93
2023/06/15 06:02:57;;;;;;;7.95;7.30;;;23.50;99.90;;;;;;4896467;29;20035;-93
2023/06/15 06:05:38;;;;;;;8.82;7.82;;;23.80;99.90;;;;;;4908784;29;20039;-93
2023/06/15 06:08:06;;;;;;;9.85;9.15;;;24.60;99.90;;;;;;4905979;29;20452;-94
2023/06/15 06:10:33;;;;;;;11.50;10.57;;;24.80;99.90;;;;;;4905727;29;20060;-94
2023/06/15 06:13:10;;;;;;;11.52;10.68;;;24.60;99.90;;;;;;4921559;29;20551;-94
2023/06/15 06:15:36;;;;;;;10.10;8.98;;;24.20;99.90;;;;;;4921490;29;20039;-94
2023/06/15 06:18:04;;;;;;;10.07;9.05;;;24.10;99.90;;;;;;4895179;29;20132;-94
2023/06/15 06:20:32;;;;;;;10.93;7.90;;;23.70;99.90;;;;;;4886837;29;20028;-94
2023/06/15 06:22:59;;;;;;;7.50;6.85;;;23.50;99.90;;;;;;4886753;29;20047;-95
2023/06/15 06:25:25;;;;;;;8.38;6.57;;;23.30;99.90;;;;;;4886681;29;20032;-92
2023/06/15 06:27:52;;;;;;;7.35;6.43;;;23.10;99.90;;;;;;4886493;29;20032;-93
2023/06/15 06:30:18;;;;;;;7.85;6.40;;;23.00;99.90;;;;;;4886914;29;20419;-94
2023/06/15 06:32:44;;;;;;;5.95;5.45;;;22.90;99.90;;;;;;4886920;29;20032;-95
2023/06/15 06:35:11;;;;;;;5.57;5.07;;;22.70;99.90;;;;;;4886743;29;20028;-94
2023/06/15 06:37:37;;;;;;;9.15;5.10;;;22.40;99.90;;;;;;4886411;29;20449;-96
2023/06/15 06:40:04;;;;;;;6.80;5.47;;;22.30;99.90;;;;;;4886710;29;20036;-93
2023/06/15 06:42:31;;;;;;;9.02;5.22;;;22.10;99.90;;;;;;4892511;29;20090;-93
2023/06/15 06:44:59;;;;;;;9.38;5.07;;;22.00;99.90;;;;;;4905347;29;20039;-93
2023/06/15 06:47:30;;;;;;;5.88;4.38;;;21.80;99.90;;;;;;4905213;29;20046;-93
2023/06/15 07:24:55;;;;;;;3.35;2.92;;;20.60;99.90;;;;;;5351001;23;20289;-94
2023/06/15 08:39:05;;;;;;;15.57;14.68;;;26.40;99.90;;;;;;4899796;29;20044;-91
2023/06/15 08:41:32;;;;;;;18.63;15.43;;;27.00;99.90;;;;;;4884947;29;20052;-93
2023/06/15 08:44:03;;;;;;;16.23;15.20;;;27.30;99.90;;;;;;4900424;29;20043;-93
2023/06/15 08:46:30;;;;;;;16.48;15.40;;;27.50;99.90;;;;;;4932588;23;20074;-84
2023/06/15 08:48:58;;;;;;;17.10;16.10;;;27.30;99.90;;;;;;4939254;29;20055;-85
2023/06/15 08:51:25;;;;;;;16.98;16.00;;;27.00;99.90;;;;;;4906439;29;20122;-82
2023/06/15 08:53:57;;;;;;;19.23;17.75;;;26.60;99.90;;;;;;4906247;29;20465;-83
2023/06/15 08:56:23;;;;;;;17.52;16.42;;;26.30;99.90;;;;;;4922163;29;20040;-85
2023/06/15 08:58:50;;;;;;;18.08;16.70;;;26.10;99.90;;;;;;4926452;29;20028;-93
2023/06/15 09:01:25;;;;;;;17.50;16.40;;;26.20;99.90;;;;;;4907204;29;20475;-94
2023/06/15 09:03:55;;;;;;;17.85;16.58;;;26.10;99.90;;;;;;4922732;29;20043;-95
2023/06/15 09:06:22;;;;;;;17.90;16.58;;;25.80;99.90;;;;;;4907614;29;20034;-92
2023/06/15 09:08:50;;;;;;;18.00;16.80;;;25.90;99.90;;;;;;4907239;29;20031;-93
2023/06/15 09:11:18;;;;;;;17.52;16.30;;;26.20;99.90;;;;;;4907112;29;20036;-96
2023/06/15 09:13:45;;;;;;;16.73;15.73;;;26.90;99.90;;;;;;4907169;29;20027;-91
2023/06/15 09:16:11;;;;;;;17.73;16.63;;;26.60;99.90;;;;;;4903306;29;20131;-91
2023/06/15 09:18:51;;;;;;;17.60;16.48;;;26.80;99.90;;;;;;4888218;29;20032;-93
2023/06/15 09:21:20;;;;;;;18.10;16.80;;;26.60;99.90;;;;;;4903442;29;20103;-92
2023/06/15 09:23:47;;;;;;;18.27;16.90;;;26.20;99.90;;;;;;4888200;29;20031;-94
2023/06/15 09:26:21;;;;;;;16.98;15.98;;;26.20;99.90;;;;;;4919142;29;20032;-94
2023/06/15 09:28:49;;;;;;;17.13;15.75;;;25.50;99.90;;;;;;4906552;29;20028;-95
2023/06/15 09:31:32;;;;;;;14.35;13.25;;;25.10;99.90;;;;;;4906525;29;20493;-94
2023/06/15 09:34:10;;;;;;;15.45;14.13;;;24.70;99.90;;;;;;4906861;29;20028;-96
2023/06/15 09:36:41;;;;;;;14.00;13.07;;;24.50;99.90;;;;;;4906605;29;20046;-94
2023/06/15 09:39:09;;;;;;;14.20;13.15;;;24.50;99.90;;;;;;4906492;29;20023;-94
2023/06/15 09:41:52;;;;;;;15.30;14.20;;;24.70;99.90;;;;;;4906509;29;20032;-94
2023/06/15 09:44:23;;;;;;;15.40;14.27;;;24.60;99.90;;;;;;4906461;29;20023;-93
2023/06/15 09:46:53;;;;;;;15.85;14.55;;;24.90;99.90;;;;;;4895637;29;20051;-93
2023/06/15 09:49:25;;;;;;;15.73;14.73;;;24.90;99.90;;;;;;4911282;29;20051;-94
2023/06/15 09:51:53;;;;;;;16.20;14.80;;;25.00;99.90;;;;;;4906827;29;20043;-93
2023/06/15 09:54:23;;;;;;;16.15;14.88;;;24.80;99.90;;;;;;4902833;29;20028;-93
2023/06/15 09:56:51;;;;;;;16.05;14.85;;;25.10;99.90;;;;;;4903081;29;20071;-93
2023/06/15 09:59:21;;;;;;;15.45;14.55;;;25.20;99.90;;;;;;4887931;29;20025;-93
2023/06/15 10:01:54;;;;;;;16.52;15.43;;;25.20;99.90;;;;;;4887904;29;20036;-93
2023/06/15 10:04:24;;;;;;;16.65;15.65;;;25.30;99.90;;;;;;4898609;29;20123;-93
2023/06/15 10:07:01;;;;;;;17.00;16.00;;;25.60;99.90;;;;;;4887092;29;20036;-93
2023/06/15 10:09:35;;;;;;;16.63;15.63;;;25.90;99.90;;;;;;4902944;29;20083;-92
2023/06/15 10:12:13;;;;;;;17.35;16.10;;;25.80;99.90;;;;;;4903077;29;20039;-92
2023/06/15 10:15:00;;;;;;;15.95;15.05;;;25.20;99.90;;;;;;4902526;29;20485;-94
2023/06/15 10:17:37;;;;;;;15.65;14.55;;;24.90;99.90;;;;;;4902371;29;20068;-94
2023/06/15 10:20:24;;;;;;;15.32;14.32;;;24.50;99.90;;;;;;4887213;29;20036;-93
2023/06/15 10:23:04;;;;;;;16.05;15.07;;;23.80;99.90;;;;;;4897669;29;20032;-92
2023/06/15 10:25:32;;;;;;;16.33;15.32;;;23.30;99.90;;;;;;4905842;29;20078;-92
2023/06/15 10:28:02;;;;;;;16.20;15.20;;;23.20;99.90;;;;;;4905411;29;20493;-93
2023/06/15 10:30:38;;;;;;;15.70;14.50;;;23.30;99.90;;;;;;4905675;29;20032;-93
2023/06/15 10:33:22;;;;;;;16.40;14.98;;;23.40;99.90;;;;;;4906177;29;20034;-93
2023/06/15 10:35:51;;;;;;;;;;;23.80;99.90;;;;;;4906150;29;20071;-93
2023/06/15 10:38:49;;;;;;;15.40;14.60;;;24.10;99.90;;;;;;4902113;29;19911;-93
2023/06/15 10:41:15;;;;;;;15.07;14.27;;;24.50;99.90;;;;;;4902341;29;20043;-94
2023/06/15 10:43:57;;;;;;;15.93;14.77;;;24.80;99.90;;;;;;4887146;29;20032;-94
2023/06/15 10:46:34;;;;;;;16.23;15.32;;;24.60;99.90;;;;;;4886911;29;20044;-92
2023/06/15 10:49:06;;;;;;;16.05;15.13;;;24.50;99.90;;;;;;4901895;29;20131;-92
2023/06/15 10:51:40;;;;;;;16.17;15.27;;;24.80;99.90;;;;;;4901895;29;20047;-92
2023/06/15 10:54:23;;;;;;;16.63;15.73;;;25.00;99.90;;;;;;4902114;29;20032;-96
2023/06/15 12:40:30;;;;;;;17.52;16.60;;;26.10;99.90;;;;;;4951433;28;20070;-92
2023/06/15 12:43:07;;;;;;;18.10;16.80;;;25.80;99.90;;;;;;4996276;23;20142;-94
2023/06/15 12:45:50;;;;;;;17.83;16.63;;;25.20;99.90;;;;;;4959224;23;20043;-92
2023/06/15 12:48:16;;;;;;;18.13;17.13;;;24.90;99.90;;;;;;4944286;28;20154;-92
2023/06/15 12:59:39;;;;;;;18.13;16.98;;;25.10;99.90;;;;;;4988862;23;20076;-92
2023/06/15 13:40:54;;;;;;;18.33;17.13;;;25.90;99.90;;;;;;4944658;29;20119;-94
2023/06/15 13:43:47;;;;;;;17.85;16.92;;;25.60;99.90;;;;;;4918487;29;20046;-94
2023/06/15 13:46:14;;;;;;;18.15;17.13;;;25.80;99.90;;;;;;4917956;29;20035;-93
2023/06/15 13:48:55;;;;;;;;;;;;;;;;;;;;;
2023/06/15 13:51:36;;;;;;;18.52;17.33;;;25.50;99.90;;;;;;4937052;29;20028;-92
2023/06/15 13:54:22;;;;;;;17.98;16.88;;;25.50;99.90;;;;;;4940676;29;20039;-93
2023/06/15 13:57:01;;;;;;;;;;;;;;;;;;;;;
2023/06/15 15:06:22;;;;;;;17.35;16.35;;;26.10;99.90;;;;;;5914299;23;20689;-91
2023/06/15 15:09:03;;;;;;;17.58;16.38;;;26.10;99.90;;;;;;4923924;28;20024;-95
2023/06/15 15:29:47;;;;;;;17.08;16.15;;;26.20;99.90;;;;;;4751273;23;20060;-80
2023/06/15 15:56:40;;;;;;;16.90;15.93;;;24.90;99.90;;;;;;4944143;28;20050;-93
2023/06/15 15:59:10;;;;;;;17.52;16.58;;;24.90;99.90;;;;;;4931502;29;20103;-92
2023/06/15 16:01:36;;;;;;;17.13;16.23;;;24.90;99.90;;;;;;4931822;29;20047;-92
2023/06/15 16:04:03;;;;;;;17.60;16.58;;;24.90;99.90;;;;;;4930522;29;20038;-93
2023/06/15 16:06:31;;;;;;;17.67;16.67;;;24.90;99.90;;;;;;4933124;29;20032;-92
2023/06/15 16:08:59;;;;;;;16.95;16.10;;;24.90;99.90;;;;;;4950960;29;20036;-92
2023/06/15 16:11:26;;;;;;;18.35;17.10;;;24.90;99.90;;;;;;4902584;29;20135;-92
2023/06/15 16:14:00;;;;;;;17.88;16.73;;;24.70;99.90;;;;;;4919622;29;20024;-92
2023/06/15 16:16:38;;;;;;;17.17;15.93;;;24.70;99.90;;;;;;4898831;29;20052;-94
2023/06/15 16:19:05;;;;;;;17.13;16.00;;;24.70;99.90;;;;;;4898104;29;20036;-92
2023/06/15 16:21:36;;;;;;;18.15;16.60;;;24.70;99.90;;;;;;4911882;29;20028;-93
2023/06/15 16:24:08;;;;;;;16.80;15.90;;;24.60;99.90;;;;;;4915818;29;20036;-91
2023/06/15 16:26:37;;;;;;;17.00;15.98;;;24.70;99.90;;;;;;4900722;29;20042;-93
2023/06/15 16:29:24;;;;;;;;;;;;;;;;;;;;;
2023/06/15 16:35:36;;;;;;;18.05;16.95;;;24.70;99.90;;;;;;4824067;29;20042;-90
2023/06/15 16:38:24;;;;;;;17.30;15.95;;;24.70;99.90;;;;;;4822744;29;20038;-94
2023/06/15 16:41:54;;;;;;;17.48;16.48;;;24.50;99.90;;;;;;4810412;29;20130;-93
2023/06/15 16:45:00;;;;;;;;;;;;;;;;;;;;;
2023/06/15 16:48:05;;;;;;;17.35;16.20;;;24.10;99.90;;;;;;4740333;30;20037;-93
2023/06/15 16:50:32;;;;;;;17.00;16.10;;;24.10;99.90;;;;;;4737353;30;20045;-94
2023/06/15 16:53:15;;;;;;;16.70;15.77;;;24.30;99.90;;;;;;4736884;30;20040;-92
2023/06/15 17:08:21;;;;;;;;;;;;;;;;;;;;;
2023/06/15 17:11:51;;;;;;;16.35;15.45;;;23.80;99.90;;;;;;4660192;30;20052;-93
2023/06/15 18:09:39;;;;;;;9.77;9.07;;;22.10;99.90;;;;;;6068094;23;20023;-93
2023/06/15 18:12:11;;;;;;;9.45;8.95;;;22.10;99.90;;;;;;6038384;23;20029;-91
2023/06/15 18:14:39;;;;;;;11.18;9.98;;;22.10;99.90;;;;;;6017977;23;20015;-92
2023/06/15 18:17:10;;;;;;;11.07;9.18;;;22.00;99.90;;;;;;6040264;23;20027;-91
2023/06/15 18:19:37;;;;;;;10.00;9.20;;;22.00;99.90;;;;;;6064479;23;20041;-91
2023/06/15 18:22:03;;;;;;;10.23;9.48;;;22.00;99.90;;;;;;6067889;23;20444;-93
2023/06/15 18:24:30;;;;;;;9.57;8.93;;;22.00;99.90;;;;;;6055223;23;20429;-92
2023/06/15 18:26:56;;;;;;;20.08;10.27;;;21.90;99.90;;;;;;6068828;23;20021;-91
2023/06/15 18:29:23;;;;;;;9.90;9.30;;;21.90;99.90;;;;;;6083674;23;20010;-92
2023/06/15 18:31:49;;;;;;;10.15;9.35;;;21.80;99.90;;;;;;6104048;23;20089;-94
2023/06/15 18:34:15;;;;;;;10.57;9.80;;;21.80;99.90;;;;;;6099622;23;20511;-92
2023/06/15 18:36:42;;;;;;;10.20;9.60;;;21.90;99.90;;;;;;6098826;23;20441;-91
2023/06/15 18:39:10;;;;;;;10.18;9.35;;;21.80;99.90;;;;;;6098249;23;20083;-91
2023/06/15 18:41:38;;;;;;;10.48;9.50;;;21.80;99.90;;;;;;6098389;23;20073;-91
2023/06/15 18:44:05;;;;;;;10.32;9.43;;;21.70;99.90;;;;;;6098330;23;20017;-91
2023/06/15 18:46:31;;;;;;;9.90;9.13;;;21.70;99.90;;;;;;6098028;23;20021;-91
2023/06/15 18:48:58;;;;;;;9.52;8.88;;;21.70;99.90;;;;;;6098458;23;20010;-92
2023/06/15 18:51:24;;;;;;;9.40;8.80;;;21.60;99.90;;;;;;6098580;23;20017;-94
2023/06/15 18:53:51;;;;;;;9.65;8.95;;;21.60;99.90;;;;;;6100844;23;20006;-94
2023/06/15 18:56:17;;;;;;;9.07;8.57;;;21.60;99.90;;;;;;6098866;23;20011;-93
2023/06/15 18:58:44;;;;;;;8.65;8.23;;;21.60;99.90;;;;;;6098249;23;20086;-92
2023/06/15 19:01:10;;;;;;;12.40;8.68;;;21.60;99.90;;;;;;6098076;23;20436;-92
2023/06/15 19:03:37;;;;;;;9.43;8.77;;;21.60;99.90;;;;;;6072173;23;20452;-93
2023/06/15 19:06:03;;;;;;;8.77;8.13;;;21.60;99.90;;;;;;6097943;23;20437;-91
2023/06/15 19:08:29;;;;;;;8.77;8.27;;;21.50;99.90;;;;;;6098186;23;20022;-93
2023/06/15 19:10:56;;;;;;;8.45;7.95;;;21.60;99.90;;;;;;6098058;23;20038;-91
2023/06/15 19:13:24;;;;;;;9.45;8.65;;;21.60;99.90;;;;;;6073775;23;20014;-92
2023/06/15 19:19:11;;;;;;;8.55;7.63;;;21.50;99.90;;;;;;6075419;23;20358;-94
2023/06/15 19:21:42;;;;;;;8.23;7.30;;;21.40;99.90;;;;;;6040243;23;20517;-91
2023/06/15 19:24:10;;;;;;;9.18;6.65;;;21.40;99.90;;;;;;6016587;23;20037;-93
2023/06/15 19:26:37;;;;;;;7.40;6.18;;;21.40;99.90;;;;;;6023101;23;20003;-91
2023/06/15 19:29:05;;;;;;;7.93;6.00;;;21.30;99.90;;;;;;6044718;23;20038;-92
2023/06/15 19:31:33;;;;;;;5.72;5.32;;;21.30;99.90;;;;;;6046556;23;20007;-93
2023/06/15 19:34:04;;;;;;;12.93;6.75;;;21.10;99.90;;;;;;6045871;23;20011;-92
2023/06/15 19:36:35;;;;;;;5.07;4.65;;;21.10;99.90;;;;;;6046156;23;20007;-91
2023/06/15 19:39:44;;;;;;;4.95;4.65;;;21.10;99.90;;;;;;6046501;23;20011;-92
2023/06/15 19:42:11;;;;;;;4.72;4.32;;;21.10;99.90;;;;;;6075057;23;20015;-91
2023/06/15 19:44:38;;;;;;;5.10;4.80;;;21.00;99.90;;;;;;6048006;23;20042;-92
2023/06/15 19:47:05;;;;;;;6.05;5.07;;;20.90;99.90;;;;;;6044981;23;20011;-92
2023/06/15 19:49:32;;;;;;;4.80;4.40;;;20.90;99.90;;;;;;6044382;23;20019;-90
2023/06/15 19:52:02;;;;;;;6.35;4.82;;;20.80;99.90;;;;;;6044273;23;20003;-91
2023/06/15 19:54:31;;;;;;;5.00;4.63;;;20.90;99.90;;;;;;6044174;23;20047;-91
2023/06/15 19:57:00;;;;;;;5.00;4.70;;;20.80;99.90;;;;;;6020446;23;20014;-92
2023/06/15 19:59:27;;;;;;;4.85;4.55;;;20.80;99.90;;;;;;6076353;23;20022;-92
2023/06/15 20:01:53;;;;;;;4.90;4.65;;;20.80;99.90;;;;;;6098397;23;20017;-92
2023/06/15 20:04:25;;;;;;;4.95;4.75;;;20.80;99.90;;;;;;6104722;23;20013;-92
2023/06/15 20:06:58;;;;;;;5.68;4.65;;;20.70;99.90;;;;;;6105554;23;20463;-92
2023/06/15 20:09:45;;;;;;;4.63;4.43;;;20.80;99.90;;;;;;6104345;23;20034;-92
2023/06/15 20:12:17;;;;;;;5.10;4.90;;;20.70;99.90;;;;;;6100804;23;20006;-91
2023/06/15 21:13:26;;;;;;;4.32;3.50;;;20.20;99.90;;;;;;6042858;23;20600;-92
2023/06/15 21:16:25;;;;;;;5.82;3.58;;;20.20;99.90;;;;;;5903014;24;20022;-93
2023/06/15 21:19:50;;;;;;;;;;;;;;;;;;;;;
2023/06/15 21:30:24;;;;;;;3.65;3.42;;;20.00;99.90;;;;;;5989114;23;20099;-94
2023/06/15 21:41:16;;;;;;;3.58;3.47;;;20.00;99.90;;;;;;6056679;23;20030;-92
2023/06/15 21:43:53;;;;;;;4.80;4.10;;;20.00;99.90;;;;;;6081185;23;20029;-93
2023/06/15 21:46:43;;;;;;;3.83;3.63;;;19.90;99.90;;;;;;6060247;23;20023;-92
2023/06/15 21:49:24;;;;;;;3.97;3.72;;;20.00;99.90;;;;;;6015453;23;20014;-92
2023/06/15 22:02:27;;;;;;;4.30;3.90;;;20.00;99.90;;;;;;5873603;24;20595;-92
2023/06/15 22:05:19;;;;;;;;;;;;;;;;;;;;;
2023/06/15 22:08:31;;;;;;;4.25;4.00;;;20.00;99.90;;;;;;5901768;24;20013;-92
2023/06/15 22:15:24;;;;;;;4.38;4.18;;;19.90;99.90;;;;;;5821579;24;20083;-93
2023/06/15 22:20:47;;;;;;;4.63;4.32;;;20.00;99.90;;;;;;6070508;23;20103;-77
2023/06/15 22:23:15;;;;;;;4.70;4.30;;;19.90;99.90;;;;;;6044720;23;20003;-78
2023/06/15 22:25:42;;;;;;;4.28;4.05;;;19.90;99.90;;;;;;6044628;23;20045;-77
2023/06/15 22:28:11;;;;;;;4.32;4.00;;;19.80;99.90;;;;;;6070066;23;20011;-77
2023/06/15 22:30:38;;;;;;;4.85;4.10;;;19.80;99.90;;;;;;6070041;23;20337;-78
2023/06/15 22:33:04;;;;;;;4.43;4.13;;;19.70;99.90;;;;;;6070116;23;20007;-77
2023/06/15 22:35:31;;;;;;;4.80;4.50;;;19.70;99.90;;;;;;6069922;23;20014;-78
2023/06/15 22:37:59;;;;;;;4.47;4.28;;;19.70;99.90;;;;;;6069937;23;20003;-78
2023/06/15 22:40:28;;;;;;;13.63;4.43;;;19.70;99.90;;;;;;6044575;23;20014;-78
2023/06/15 22:42:55;;;;;;;4.78;4.47;;;19.70;99.90;;;;;;6069788;23;20003;-78
2023/06/15 22:45:21;;;;;;;4.32;4.03;;;19.60;99.90;;;;;;6069928;23;20407;-78
2023/06/15 22:47:49;;;;;;;4.97;4.57;;;19.70;99.90;;;;;;6069685;23;20070;-78
2023/06/15 22:50:16;;;;;;;4.60;4.30;;;19.70;99.90;;;;;;6069840;23;20437;-79
2023/06/15 22:52:42;;;;;;;4.15;3.95;;;19.70;99.90;;;;;;6069680;23;20003;-77
2023/06/15 22:55:09;;;;;;;5.43;3.92;;;19.70;99.90;;;;;;6069995;23;20011;-89
2023/06/15 22:57:36;;;;;;;4.53;3.60;;;19.70;99.90;;;;;;6050039;23;20026;-93
2023/06/15 23:00:11;;;;;;;4.10;3.90;;;19.70;99.90;;;;;;6025184;23;20098;-92
2023/06/15 23:02:37;;;;;;;4.50;3.95;;;19.70;99.90;;;;;;6022876;23;20345;-93
2023/06/15 23:05:08;;;;;;;4.40;4.00;;;19.60;99.90;;;;;;6052528;23;20002;-92
2023/06/15 23:07:38;;;;;;;4.97;3.92;;;19.70;99.90;;;;;;6051875;23;20081;-91
2023/06/15 23:10:21;;;;;;;3.83;3.70;;;19.70;99.90;;;;;;6080027;23;20192;-92
2023/06/15 23:16:36;;;;;;;4.68;4.35;;;19.70;99.90;;;;;;6093787;23;20030;-94